Bishop, California
Current Conditions -  °F | °C
As of 9:56 AM on Tuesday 21 Oct 2014 (Local Time) from KBIH Reporting Station
Clear Clear  
Wind Chill: 64°   Ceiling: Unl
Heat Index: 64°   Visibility: 10mi
Dew Point: 15°   Wind: 6mph
Humidity: 15%   Direction: 10°N
Pressure: 30.01"   Gusts: NA
Location:  37.24°N, 118.4°W
Report Text: KBIH 211656Z AUTO 01005KT 10SM CLR 18/M09 A3001 RMK AO2 SLP131 T01781094
Loading
Personal Weather Stations






























Interactive Weather Map
Tropical Storm Tracking
New forecast layout! Learn more

10-Day Weather Forecast

Advertisements
Track Severe Weather on mobile